Time;durP1;ratioP1;P1;durP2;ratioP2;P2;SDS_P1;SDS_P2;PMS_P1;PMS_P2;Temp;Humidity;BMP_temperature;BMP_pressure;BME280_temperature;BME280_humidity;BME280_pressure;Samples;Min_cycle;Max_cycle;Signal;HPM_P1;HPM_P2
2023/03/05 00:01:09;;;;;;;4.73;4.43;;;;;;;2.82;72.18;95629.66;4322005;32;20383;-61
2023/03/05 00:03:35;;;;;;;4.73;4.43;;;;;;;2.49;73.50;95633.81;4335730;32;20328;-61
2023/03/05 00:06:02;;;;;;;8.63;7.83;;;;;;;2.60;73.45;95632.16;4323558;32;20304;-61
2023/03/05 00:08:28;;;;;;;5.67;5.27;;;;;;;2.62;73.40;95635.34;4302288;33;20290;-61
2023/03/05 00:11:03;;;;;;;7.30;6.80;;;;;;;2.71;73.26;95634.72;4343390;32;20315;-61
2023/03/05 00:13:29;;;;;;;3.93;3.73;;;;;;;2.69;73.01;95631.56;4314997;32;20205;-62
2023/03/05 00:16:04;;;;;;;9.47;5.80;;;;;;;2.67;73.07;95628.38;4306933;32;20346;-61
2023/03/05 00:18:29;;;;;;;5.57;5.20;;;;;;;2.70;73.01;95625.28;4303056;32;20190;-62
2023/03/05 00:20:54;;;;;;;6.30;5.87;;;;;;;2.70;73.44;95621.88;4324638;32;20316;-62
2023/03/05 00:23:20;;;;;;;5.93;4.80;;;;;;;2.69;73.29;95617.69;4331025;32;20213;-61
2023/03/05 00:25:46;;;;;;;7.20;6.70;;;;;;;2.64;73.02;95613.13;4329831;32;20219;-61
2023/03/05 00:28:13;;;;;;;5.00;4.60;;;;;;;2.49;73.71;95615.50;4327808;32;20301;-61
2023/03/05 00:30:38;;;;;;;5.53;5.27;;;;;;;2.41;74.14;95613.25;4341251;32;20340;-61
2023/03/05 00:33:04;;;;;;;7.27;6.70;;;;;;;2.41;74.35;95613.25;4309318;32;20341;-62
2023/03/05 00:35:30;;;;;;;5.83;5.43;;;;;;;2.59;74.03;95602.56;4321522;32;20190;-62
2023/03/05 00:37:58;;;;;;;7.07;6.33;;;;;;;2.56;73.70;95608.28;4341529;32;20268;-62
2023/03/05 00:40:28;;;;;;;6.37;5.87;;;;;;;2.75;72.83;95607.03;4328158;32;20360;-61
2023/03/05 00:42:55;;;;;;;5.83;5.43;;;;;;;2.50;73.85;95603.97;4327688;32;20281;-62
2023/03/05 00:45:20;;;;;;;6.10;5.60;;;;;;;2.61;73.86;95604.97;4331495;32;20286;-62
2023/03/05 00:47:47;;;;;;;4.37;3.97;;;;;;;2.64;73.27;95597.44;4319759;32;20331;-62
2023/03/05 00:50:13;;;;;;;6.37;5.93;;;;;;;2.53;74.21;95592.25;4326785;32;20202;-61
2023/03/05 00:52:40;;;;;;;6.43;4.97;;;;;;;2.44;74.74;95585.81;4346816;32;20551;-62
2023/03/05 00:55:06;;;;;;;6.50;5.90;;;;;;;2.45;74.80;95585.56;4337905;32;20200;-60
2023/03/05 00:57:32;;;;;;;5.63;5.30;;;;;;;2.63;74.02;95584.56;4340928;32;20286;-61
2023/03/05 00:59:57;;;;;;;5.10;4.80;;;;;;;2.54;74.37;95584.16;4337610;32;20289;-61
2023/03/05 01:02:24;;;;;;;5.40;5.10;;;;;;;2.48;74.80;95573.84;4337909;32;20248;-61
2023/03/05 01:04:51;;;;;;;5.97;5.57;;;;;;;2.43;74.60;95574.53;4340176;32;20224;-61
2023/03/05 01:07:16;;;;;;;6.10;5.30;;;;;;;2.51;74.62;95574.16;4322678;32;20291;-61
2023/03/05 01:09:43;;;;;;;6.03;5.57;;;;;;;2.55;74.22;95575.25;4344087;32;20256;-61
2023/03/05 01:12:08;;;;;;;6.80;6.40;;;;;;;2.41;74.83;95581.84;4334716;32;20201;-61
2023/03/05 01:14:36;;;;;;;5.30;5.00;;;;;;;2.40;75.41;95569.78;4320328;32;20332;-61
2023/03/05 01:17:03;;;;;;;8.07;7.47;;;;;;;2.53;75.17;95568.66;4335464;32;20202;-61
2023/03/05 01:19:29;;;;;;;6.43;4.83;;;;;;;2.50;75.02;95564.69;4343139;32;20293;-61
2023/03/05 01:21:54;;;;;;;5.73;5.33;;;;;;;2.67;74.24;95568.16;4336487;32;20359;-61
2023/03/05 01:24:20;;;;;;;5.20;4.33;;;;;;;2.66;73.55;95553.47;4332040;32;20232;-61
2023/03/05 01:26:48;;;;;;;8.50;6.57;;;;;;;2.49;74.23;95565.75;4309204;33;20194;-61
2023/03/05 01:29:15;;;;;;;4.77;4.37;;;;;;;2.55;74.36;95556.94;4318044;32;20375;-61
2023/03/05 01:31:42;;;;;;;4.37;4.13;;;;;;;2.72;73.93;95554.31;4308177;32;20384;-61
2023/03/05 01:34:07;;;;;;;5.07;4.67;;;;;;;2.68;73.90;95554.03;4320534;32;20389;-61
2023/03/05 01:36:32;;;;;;;7.93;5.67;;;;;;;2.78;73.84;95547.34;4317049;32;20306;-60
2023/03/05 01:38:58;;;;;;;5.53;5.23;;;;;;;2.67;73.75;95547.19;4315802;32;20212;-62
2023/03/05 01:41:25;;;;;;;8.07;7.30;;;;;;;2.64;74.12;95546.88;4316034;32;20244;-60
2023/03/05 01:43:52;;;;;;;5.40;5.10;;;;;;;2.40;74.82;95539.16;4330241;32;20209;-61
2023/03/05 01:46:39;;;;;;;5.80;5.27;;;;;;;2.41;75.34;95532.09;4341948;32;20305;-61
2023/03/05 01:49:21;;;;;;;4.77;4.47;;;;;;;2.60;74.92;95537.91;4298036;32;20334;-61
2023/03/05 01:51:56;;;;;;;5.87;5.50;;;;;;;2.53;74.95;95530.19;4330077;32;20289;-61
2023/03/05 01:54:27;;;;;;;4.67;4.37;;;;;;;2.70;74.15;95533.59;4334902;32;20301;-61
2023/03/05 01:56:57;;;;;;;4.70;4.30;;;;;;;2.68;74.38;95533.09;4341573;32;20290;-61
2023/03/05 01:59:25;;;;;;;5.43;5.03;;;;;;;2.78;73.91;95521.16;4355807;32;20290;-61
2023/03/05 02:01:53;;;;;;;4.23;4.03;;;;;;;2.72;74.04;95528.94;4345461;32;20286;-60
2023/03/05 02:04:22;;;;;;;5.60;5.23;;;;;;;2.63;74.30;95535.59;4344213;32;20297;-62
2023/03/05 02:06:48;;;;;;;6.23;5.67;;;;;;;2.38;75.18;95528.13;4301317;33;20299;-61
2023/03/05 02:09:16;;;;;;;4.53;4.23;;;;;;;2.73;74.22;95535.75;4336587;32;20404;-61
2023/03/05 02:11:42;;;;;;;5.60;5.30;;;;;;;2.56;74.41;95523.69;4329549;32;20281;-61
2023/03/05 02:14:08;;;;;;;6.10;5.77;;;;;;;2.64;74.93;95525.94;4338016;32;20319;-61
2023/03/05 02:16:35;;;;;;;5.37;5.07;;;;;;;2.46;75.11;95521.72;4338144;32;20193;-61
2023/03/05 02:19:03;;;;;;;5.13;4.67;;;;;;;2.63;74.85;95516.47;4343399;32;20309;-61
2023/03/05 02:21:37;;;;;;;5.23;4.87;;;;;;;2.59;75.22;95515.38;4323383;32;20358;-61
2023/03/05 02:24:02;;;;;;;4.87;4.57;;;;;;;2.64;75.14;95516.25;4325082;32;20344;-60
2023/03/05 02:26:29;;;;;;;7.33;6.73;;;;;;;2.69;74.76;95524.19;4326726;32;20294;-60
2023/03/05 02:29:00;;;;;;;6.13;5.67;;;;;;;2.84;74.39;95514.97;4327238;32;20236;-61
2023/03/05 02:31:26;;;;;;;5.70;5.07;;;;;;;2.75;74.37;95517.97;4328924;32;20395;-61
2023/03/05 02:33:56;;;;;;;5.57;5.23;;;;;;;2.54;75.28;95516.06;4341217;32;20295;-60
2023/03/05 02:36:24;;;;;;;5.07;4.77;;;;;;;2.54;75.60;95508.22;4333391;32;20282;-60
2023/03/05 02:38:52;;;;;;;7.63;4.93;;;;;;;2.55;75.66;95507.19;4326560;32;20286;-61
2023/03/05 02:41:18;;;;;;;9.20;6.57;;;;;;;2.52;75.71;95504.25;4345011;32;20310;-61
2023/03/05 02:43:43;;;;;;;4.90;4.40;;;;;;;2.72;74.89;95500.12;4331645;32;20294;-62
2023/03/05 02:46:09;;;;;;;5.13;4.73;;;;;;;2.80;74.86;95493.69;4339808;32;20451;-61
2023/03/05 02:48:34;;;;;;;5.63;5.20;;;;;;;2.64;74.81;95490.06;4345961;32;20263;-61
2023/03/05 02:51:02;;;;;;;5.23;4.83;;;;;;;2.55;75.54;95496.72;4348994;32;20213;-61
2023/03/05 02:53:30;;;;;;;5.43;5.13;;;;;;;2.56;75.71;95492.28;4314140;32;20197;-62
2023/03/05 02:55:55;;;;;;;4.87;4.47;;;;;;;2.66;75.95;95488.00;4323175;32;20332;-61
2023/03/05 02:58:21;;;;;;;6.70;6.10;;;;;;;2.38;76.41;95475.78;4325622;32;20289;-62
2023/03/05 03:00:46;;;;;;;4.57;4.30;;;;;;;2.68;75.86;95480.69;4316447;32;20202;-62
2023/03/05 03:03:13;;;;;;;4.53;4.20;;;;;;;2.69;75.93;95476.25;4330004;32;20252;-62
2023/03/05 03:05:39;;;;;;;5.73;5.43;;;;;;;2.61;76.10;95469.59;4323731;32;20293;-61
2023/03/05 03:08:05;;;;;;;4.90;4.50;;;;;;;2.67;76.02;95462.59;4348858;32;20389;-61
2023/03/05 03:10:33;;;;;;;8.27;5.90;;;;;;;2.61;76.12;95453.88;4348147;32;20290;-61
2023/03/05 03:12:58;;;;;;;4.07;3.77;;;;;;;2.64;76.50;95452.63;4337206;32;20248;-61
2023/03/05 03:15:24;;;;;;;4.73;4.43;;;;;;;2.92;75.59;95454.28;4338181;32;20329;-61
2023/03/05 03:17:50;;;;;;;5.93;5.43;;;;;;;3.14;74.38;95455.09;4331405;32;20296;-62
2023/03/05 03:20:17;;;;;;;7.00;6.33;;;;;;;3.01;74.32;95448.41;4343054;32;20216;-61
2023/03/05 03:22:44;;;;;;;6.33;5.93;;;;;;;2.92;74.55;95438.56;4346650;32;20286;-61
2023/03/05 03:25:13;;;;;;;6.93;6.33;;;;;;;2.79;75.27;95449.41;4346446;32;20407;-61
2023/03/05 03:27:38;;;;;;;5.43;5.13;;;;;;;2.90;75.28;95448.53;4342708;32;20294;-61
2023/03/05 03:30:05;;;;;;;6.73;6.10;;;;;;;3.16;74.33;95454.88;4335535;32;20321;-61
2023/03/05 03:32:32;;;;;;;6.47;5.50;;;;;;;3.18;74.33;95447.56;4298107;32;20194;-61
2023/03/05 03:34:59;;;;;;;4.43;4.13;;;;;;;3.11;74.90;95439.91;4327825;32;20307;-61
2023/03/05 03:37:24;;;;;;;5.67;5.20;;;;;;;3.24;74.09;95442.16;4352924;32;20286;-61
2023/03/05 03:39:49;;;;;;;6.67;6.07;;;;;;;3.37;73.39;95441.75;4325689;32;20286;-61
2023/03/05 03:42:21;;;;;;;8.27;5.30;;;;;;;3.16;74.42;95436.53;4350371;32;20241;-61
2023/03/05 03:44:47;;;;;;;5.90;5.33;;;;;;;2.94;75.61;95437.31;4331643;32;20208;-61
2023/03/05 03:47:14;;;;;;;4.77;4.47;;;;;;;3.12;75.23;95438.06;4335284;32;20299;-61
2023/03/05 03:49:41;;;;;;;4.67;4.37;;;;;;;2.91;75.93;95439.62;4330072;32;20349;-61
2023/03/05 03:52:07;;;;;;;6.67;6.07;;;;;;;2.91;76.39;95437.78;4336097;32;20343;-61
2023/03/05 03:54:32;;;;;;;4.03;3.83;;;;;;;3.00;76.12;95430.31;4321254;32;20297;-61
2023/03/05 03:56:58;;;;;;;4.70;4.50;;;;;;;2.97;76.01;95430.78;4307207;32;20216;-61
2023/03/05 03:59:24;;;;;;;6.20;5.63;;;;;;;2.97;76.33;95434.19;4346818;32;20244;-61
2023/03/05 04:01:50;;;;;;;7.13;6.53;;;;;;;3.32;74.95;95426.00;4347967;32;20197;-61
2023/03/05 04:04:20;;;;;;;6.30;5.87;;;;;;;3.13;75.74;95419.47;4348349;32;20352;-61
2023/03/05 04:06:46;;;;;;;21.13;7.20;;;;;;;3.25;75.54;95417.53;4338585;32;20251;-61
2023/03/05 04:09:11;;;;;;;5.37;5.07;;;;;;;3.22;75.39;95422.44;4312449;32;20345;-60
2023/03/05 04:11:36;;;;;;;6.00;5.60;;;;;;;3.21;75.39;95424.28;4339591;32;20196;-61
2023/03/05 04:14:03;;;;;;;6.63;6.20;;;;;;;3.17;75.90;95419.75;4343955;32;20245;-61
2023/03/05 04:16:28;;;;;;;4.47;4.27;;;;;;;3.08;76.21;95417.59;4303331;33;20198;-61
2023/03/05 04:18:54;;;;;;;5.30;5.00;;;;;;;3.26;75.69;95411.25;4337866;32;20331;-61
2023/03/05 04:21:20;;;;;;;6.40;5.90;;;;;;;3.19;75.42;95409.84;4330221;32;20216;-62
2023/03/05 04:23:47;;;;;;;5.73;5.23;;;;;;;3.15;76.06;95401.66;4328580;32;20238;-61
2023/03/05 04:26:13;;;;;;;7.03;6.30;;;;;;;3.07;75.97;95408.12;4343958;32;20290;-61
2023/03/05 04:28:38;;;;;;;6.73;6.23;;;;;;;2.96;76.76;95405.63;4348388;32;20297;-61
2023/03/05 04:31:04;;;;;;;6.57;6.17;;;;;;;3.02;76.49;95397.59;4327854;32;20304;-61
2023/03/05 04:33:31;;;;;;;6.17;5.67;;;;;;;3.19;76.05;95394.91;4342070;32;20190;-61
2023/03/05 04:35:57;;;;;;;4.23;4.03;;;;;;;3.04;76.45;95395.53;4331023;32;20284;-61
2023/03/05 04:38:24;;;;;;;6.47;5.90;;;;;;;2.88;76.81;95399.00;4352301;32;20289;-61
2023/03/05 04:40:50;;;;;;;5.17;4.90;;;;;;;2.95;76.64;95389.09;4326568;32;20297;-62
2023/03/05 04:43:16;;;;;;;6.10;5.60;;;;;;;3.15;75.66;95385.94;4307087;33;20306;-61
2023/03/05 04:45:43;;;;;;;6.10;5.60;;;;;;;2.91;76.33;95395.09;4334101;32;20339;-62
2023/03/05 04:48:10;;;;;;;7.83;7.10;;;;;;;2.95;76.42;95393.56;4308302;32;20298;-58
2023/03/05 04:50:35;;;;;;;6.77;6.23;;;;;;;3.03;76.17;95398.37;4342502;32;20370;-58
2023/03/05 04:53:02;;;;;;;6.20;5.80;;;;;;;3.08;76.14;95386.12;4337591;32;20349;-58
2023/03/05 04:55:27;;;;;;;5.13;4.83;;;;;;;3.10;76.06;95389.31;4315645;32;20247;-58
2023/03/05 04:57:53;;;;;;;5.27;4.97;;;;;;;3.12;76.13;95385.66;4343744;32;20282;-58
2023/03/05 05:00:19;;;;;;;7.00;6.33;;;;;;;3.31;74.99;95379.84;4345855;32;20186;-58
2023/03/05 05:02:46;;;;;;;7.27;6.67;;;;;;;3.12;75.70;95383.03;4339592;32;20260;-59
2023/03/05 05:05:13;;;;;;;4.97;4.50;;;;;;;3.16;75.54;95381.50;4328043;32;20320;-58
2023/03/05 05:07:40;;;;;;;5.73;5.23;;;;;;;3.02;75.94;95381.06;4336490;32;20358;-58
2023/03/05 05:10:06;;;;;;;6.63;6.00;;;;;;;2.92;76.55;95370.47;4329585;32;20345;-58
2023/03/05 05:12:33;;;;;;;4.67;4.27;;;;;;;3.04;76.41;95373.78;4343939;32;20293;-58
2023/03/05 05:14:59;;;;;;;7.23;6.53;;;;;;;3.14;76.56;95376.50;4332886;32;20349;-58
2023/03/05 05:17:28;;;;;;;5.33;5.03;;;;;;;3.12;75.98;95371.50;4310789;32;20318;-58
2023/03/05 05:19:57;;;;;;;3.73;3.53;;;;;;;3.02;76.69;95373.22;4334719;32;20292;-59
2023/03/05 05:22:22;;;;;;;6.07;5.57;;;;;;;3.02;76.60;95366.16;4348459;32;20325;-59
2023/03/05 05:24:49;;;;;;;6.70;6.07;;;;;;;2.99;76.86;95365.84;4325705;32;20345;-59
2023/03/05 05:27:19;;;;;;;6.00;5.60;;;;;;;3.10;76.63;95367.56;4312982;32;20198;-59
2023/03/05 05:29:49;;;;;;;6.57;6.10;;;;;;;3.01;76.46;95369.81;4339598;32;20293;-59
2023/03/05 05:32:22;;;;;;;5.97;5.40;;;;;;;3.17;75.95;95372.59;4321089;32;20292;-59
2023/03/05 05:34:48;;;;;;;6.93;6.40;;;;;;;3.24;75.89;95363.50;4335259;32;20289;-59
2023/03/05 05:37:15;;;;;;;6.57;5.90;;;;;;;3.05;76.24;95370.91;4337491;32;20319;-58
2023/03/05 05:39:40;;;;;;;7.07;6.37;;;;;;;2.95;77.09;95364.75;4334876;32;20312;-60
2023/03/05 05:42:05;;;;;;;5.50;5.20;;;;;;;2.94;76.96;95374.44;4328239;32;20360;-59
2023/03/05 05:44:33;;;;;;;6.07;5.67;;;;;;;3.06;76.91;95369.06;4319959;32;20249;-60
2023/03/05 05:46:59;;;;;;;5.43;5.10;;;;;;;3.01;76.91;95363.78;4341870;32;20219;-59
2023/03/05 05:49:24;;;;;;;5.33;5.03;;;;;;;2.94;77.41;95371.00;4344662;32;20365;-59
2023/03/05 05:51:49;;;;;;;6.13;5.63;;;;;;;3.11;76.56;95379.63;4346167;32;20216;-63
2023/03/05 05:54:16;;;;;;;6.93;6.27;;;;;;;2.99;77.29;95371.06;4340433;32;20195;-59
2023/03/05 05:56:42;;;;;;;6.20;5.67;;;;;;;3.00;77.32;95370.03;4337601;32;20205;-59
2023/03/05 05:59:10;;;;;;;7.47;6.77;;;;;;;2.96;77.45;95366.31;4336596;32;20285;-59
2023/03/05 06:01:35;;;;;;;8.23;7.47;;;;;;;3.07;77.24;95383.75;4353287;32;20407;-59
2023/03/05 06:04:03;;;;;;;8.30;7.50;;;;;;;3.12;77.15;95375.94;4325258;32;20321;-59
2023/03/05 06:06:28;;;;;;;6.87;6.23;;;;;;;2.97;77.81;95373.16;4340126;32;20241;-59
2023/03/05 06:08:54;;;;;;;9.30;6.67;;;;;;;3.07;77.55;95378.53;4349408;32;20281;-60
2023/03/05 06:11:20;;;;;;;12.60;6.20;;;;;;;3.07;77.65;95378.53;4345340;32;20212;-59
2023/03/05 06:13:46;;;;;;;10.60;5.60;;;;;;;3.19;77.08;95375.75;4350945;32;20332;-59
2023/03/05 06:16:16;;;;;;;6.30;4.57;;;;;;;3.08;77.54;95370.41;4314012;32;20261;-59
2023/03/05 06:18:42;;;;;;;6.50;6.00;;;;;;;2.98;77.76;95370.28;4296195;32;20301;-59
2023/03/05 06:21:11;;;;;;;9.93;4.47;;;;;;;3.07;77.52;95370.66;4329941;32;20298;-59
2023/03/05 06:23:36;;;;;;;6.10;5.53;;;;;;;3.07;77.65;95373.28;4345655;32;20224;-59
2023/03/05 06:26:05;;;;;;;6.20;5.73;;;;;;;3.05;77.67;95365.66;4350069;32;20293;-59
2023/03/05 06:28:32;;;;;;;5.70;5.27;;;;;;;3.12;77.55;95370.69;4333804;32;20208;-58
2023/03/05 06:31:11;;;;;;;6.00;5.60;;;;;;;3.19;77.70;95368.69;4329067;32;20303;-59
2023/03/05 06:33:38;;;;;;;4.90;4.50;;;;;;;3.14;78.11;95371.25;4338661;32;20298;-59
2023/03/05 06:36:11;;;;;;;6.03;5.53;;;;;;;3.15;77.64;95370.22;4355163;32;20293;-59
2023/03/05 06:38:38;;;;;;;4.87;4.47;;;;;;;3.30;77.34;95370.41;4340049;32;20301;-59
2023/03/05 06:41:11;;;;;;;6.93;5.70;;;;;;;3.34;76.84;95371.47;4321973;32;20383;-59
2023/03/05 06:43:39;;;;;;;5.50;5.00;;;;;;;3.52;76.35;95366.94;4314863;32;20377;-59
2023/03/05 06:46:11;;;;;;;5.80;5.30;;;;;;;3.42;76.83;95367.63;4344949;32;20298;-57
2023/03/05 06:48:37;;;;;;;6.10;5.53;;;;;;;3.33;77.13;95371.72;4312870;32;20287;-59
2023/03/05 06:51:02;;;;;;;5.63;5.10;;;;;;;3.25;77.87;95364.31;4338761;32;20333;-59
2023/03/05 06:53:32;;;;;;;5.80;5.40;;;;;;;3.54;76.93;95367.47;4361490;32;20255;-58
2023/03/05 06:56:00;;;;;;;8.07;4.10;;;;;;;3.25;77.50;95366.94;4349752;32;20215;-60
2023/03/05 06:58:26;;;;;;;6.90;6.33;;;;;;;3.47;77.29;95353.78;4357054;32;20324;-59
2023/03/05 07:00:53;;;;;;;7.73;5.80;;;;;;;3.61;76.40;95350.50;4343341;32;20289;-60
2023/03/05 07:03:18;;;;;;;6.53;6.10;;;;;;;3.51;76.92;95357.50;4324055;32;20301;-59
2023/03/05 07:05:44;;;;;;;5.13;4.60;;;;;;;3.51;76.87;95355.66;4326570;32;20310;-59
2023/03/05 07:08:10;;;;;;;5.50;4.60;;;;;;;3.49;76.83;95364.81;4345429;32;20268;-59
2023/03/05 07:10:41;;;;;;;5.27;4.87;;;;;;;3.83;76.02;95357.50;4314108;32;20235;-59
2023/03/05 07:13:08;;;;;;;7.47;6.73;;;;;;;3.75;76.25;95353.50;4350143;32;20294;-59
2023/03/05 07:15:38;;;;;;;5.70;5.17;;;;;;;3.75;75.79;95364.00;4348775;32;20286;-59
2023/03/05 07:18:04;;;;;;;5.27;4.97;;;;;;;3.75;75.87;95366.63;4346831;32;20295;-59
2023/03/05 07:20:33;;;;;;;5.47;4.70;;;;;;;3.72;76.01;95364.50;4326037;32;20321;-58
2023/03/05 07:22:59;;;;;;;6.00;5.57;;;;;;;3.62;76.59;95359.16;4327270;32;20217;-59
2023/03/05 07:25:29;;;;;;;5.33;5.03;;;;;;;3.63;76.38;95361.53;4346609;32;20290;-59
2023/03/05 07:27:55;;;;;;;6.73;5.97;;;;;;;3.59;76.95;95354.41;4348189;32;20189;-59
2023/03/05 07:30:20;;;;;;;4.10;3.90;;;;;;;3.63;76.68;95353.66;4311416;32;20301;-59
2023/03/05 07:32:47;;;;;;;5.47;5.07;;;;;;;3.62;77.31;95359.16;4331461;32;20251;-58
2023/03/05 07:35:13;;;;;;;6.47;5.73;;;;;;;3.56;77.18;95350.44;4325513;32;20285;-59
2023/03/05 07:37:40;;;;;;;7.67;6.90;;;;;;;3.50;77.47;95353.28;4315582;32;20286;-59
2023/03/05 07:40:07;;;;;;;3.83;3.63;;;;;;;3.48;77.38;95350.91;4341190;32;20339;-59
2023/03/05 07:42:37;;;;;;;6.77;4.77;;;;;;;3.45;77.50;95349.56;4322941;32;20290;-59
2023/03/05 07:48:27;;;;;;;4.10;3.80;;;;;;;3.51;78.22;95353.03;4318178;32;20296;-58
2023/03/05 07:51:00;;;;;;;6.20;4.50;;;;;;;3.58;77.96;95347.59;4299880;32;20301;-59
2023/03/05 07:53:31;;;;;;;5.57;5.17;;;;;;;3.49;78.52;95355.12;4331074;32;20328;-59
2023/03/05 07:55:57;;;;;;;4.57;4.30;;;;;;;3.33;78.94;95356.78;4343061;32;20387;-59
2023/03/05 07:58:27;;;;;;;12.77;5.80;;;;;;;3.48;78.62;95347.50;4330947;32;20353;-59
2023/03/05 08:00:57;;;;;;;5.37;4.93;;;;;;;3.39;78.61;95347.94;4319377;32;20298;-59
2023/03/05 08:03:23;;;;;;;5.13;4.73;;;;;;;3.53;78.06;95347.56;4356866;32;20359;-59
2023/03/05 08:05:50;;;;;;;4.30;3.90;;;;;;;3.48;78.31;95352.75;4361586;32;20311;-58
2023/03/05 08:08:17;;;;;;;5.97;5.57;;;;;;;3.39;78.82;95345.31;4335114;32;20355;-59
2023/03/05 08:10:43;;;;;;;7.23;5.27;;;;;;;3.43;78.43;95343.78;4330244;32;20304;-59
2023/03/05 08:13:10;;;;;;;5.63;5.23;;;;;;;3.42;78.29;95339.56;4341123;32;20290;-59
2023/03/05 08:15:43;;;;;;;5.03;4.43;;;;;;;3.45;78.32;95333.84;4323320;32;20233;-59
2023/03/05 08:18:09;;;;;;;4.50;4.23;;;;;;;3.57;78.29;95340.75;4351283;32;20289;-59
2023/03/05 08:20:37;;;;;;;5.33;4.80;;;;;;;3.48;77.99;95343.03;4360338;32;20277;-59
2023/03/05 08:23:04;;;;;;;8.23;7.03;;;;;;;3.69;77.25;95331.69;4341573;32;20293;-59
2023/03/05 08:25:31;;;;;;;5.47;4.97;;;;;;;3.65;77.36;95327.19;4335479;32;20297;-59
2023/03/05 08:27:59;;;;;;;5.03;4.53;;;;;;;3.55;77.57;95333.12;4322549;32;20298;-59
2023/03/05 08:30:26;;;;;;;5.67;5.37;;;;;;;3.39;78.51;95340.06;4325014;32;20289;-59
2023/03/05 08:32:53;;;;;;;6.67;6.17;;;;;;;3.58;78.15;95329.22;4362165;32;20273;-59
2023/03/05 08:35:27;;;;;;;6.40;5.90;;;;;;;3.60;77.94;95325.31;4354517;32;20281;-59
2023/03/05 08:37:55;;;;;;;6.17;5.77;;;;;;;3.73;77.49;95324.13;4359505;32;20281;-59
2023/03/05 08:40:23;;;;;;;5.10;4.70;;;;;;;3.80;77.17;95322.88;4331021;32;20349;-60
2023/03/05 08:42:51;;;;;;;6.33;5.87;;;;;;;3.70;77.30;95327.25;4347521;32;20324;-59
2023/03/05 08:45:26;;;;;;;5.00;4.60;;;;;;;3.83;77.21;95326.81;4362108;32;20278;-59
2023/03/05 08:47:56;;;;;;;4.33;4.03;;;;;;;3.82;77.70;95327.06;4335889;32;20280;-60
2023/03/05 08:50:22;;;;;;;6.43;5.87;;;;;;;3.56;78.24;95326.84;4317451;32;20289;-59
2023/03/05 08:52:49;;;;;;;7.00;6.40;;;;;;;3.50;78.43;95320.00;4340635;32;20280;-59
2023/03/05 08:55:16;;;;;;;5.87;5.33;;;;;;;3.72;77.94;95325.16;4346679;32;20265;-59
2023/03/05 08:57:41;;;;;;;5.23;4.80;;;;;;;3.84;77.97;95320.53;4361395;32;20300;-59
2023/03/05 09:00:11;;;;;;;11.10;6.00;;;;;;;3.86;77.29;95313.22;4332209;32;20305;-59
2023/03/05 09:02:37;;;;;;;5.73;5.13;;;;;;;3.82;77.26;95306.87;4344068;32;20185;-59
2023/03/05 09:05:08;;;;;;;4.47;4.27;;;;;;;3.93;77.20;95308.53;4342211;32;20329;-59
2023/03/05 09:07:34;;;;;;;4.43;4.03;;;;;;;4.01;77.14;95310.69;4334576;32;20286;-59
2023/03/05 09:10:04;;;;;;;13.40;5.03;;;;;;;3.95;77.37;95309.06;4337687;32;20334;-59
2023/03/05 09:12:31;;;;;;;3.93;3.60;;;;;;;4.08;76.96;95300.78;4348911;32;20208;-59
2023/03/05 09:14:57;;;;;;;12.17;6.30;;;;;;;4.13;76.81;95303.44;4355427;32;20350;-60
2023/03/05 09:17:23;;;;;;;7.07;6.07;;;;;;;4.03;77.15;95305.97;4340698;32;20286;-59
2023/03/05 09:19:50;;;;;;;6.93;5.83;;;;;;;4.03;77.23;95302.56;4347535;32;20194;-59
2023/03/05 09:22:15;;;;;;;7.23;6.63;;;;;;;4.10;76.94;95303.94;4345778;32;20289;-59
2023/03/05 09:24:42;;;;;;;4.57;4.27;;;;;;;4.06;76.77;95294.19;4328243;32;20428;-59
2023/03/05 09:27:11;;;;;;;6.00;5.53;;;;;;;4.14;76.82;95294.53;4337405;32;20211;-59
2023/03/05 09:29:36;;;;;;;5.47;4.97;;;;;;;4.30;76.43;95292.75;4312884;32;20368;-59
2023/03/05 09:32:03;;;;;;;7.27;4.57;;;;;;;4.37;76.03;95292.53;4342591;32;20302;-59
2023/03/05 09:34:29;;;;;;;8.87;5.97;;;;;;;4.29;76.48;95280.69;4305028;32;20197;-59
2023/03/05 09:36:57;;;;;;;5.63;5.23;;;;;;;4.26;76.72;95285.66;4342661;32;20302;-60
2023/03/05 09:39:23;;;;;;;14.67;4.60;;;;;;;4.35;76.49;95289.38;4319780;32;20277;-59
2023/03/05 09:42:17;;;;;;;4.03;3.77;;;;;;;4.39;75.89;95285.97;4330104;32;20372;-60
2023/03/05 09:44:58;;;;;;;5.30;4.87;;;;;;;4.39;75.94;95293.06;4330604;32;20239;-59
2023/03/05 09:47:56;;;;;;;4.33;4.07;;;;;;;4.32;76.07;95300.38;4325475;32;20282;-59
2023/03/05 09:50:32;;;;;;;8.10;6.63;;;;;;;4.19;76.63;95285.06;4352420;32;20325;-59
2023/03/05 09:53:22;;;;;;;5.50;5.20;;;;;;;4.10;76.84;95280.31;4343977;32;20318;-59
2023/03/05 09:55:57;;;;;;;4.50;4.13;;;;;;;4.29;76.78;95277.25;4327465;32;20290;-59
2023/03/05 09:58:38;;;;;;;5.03;4.63;;;;;;;4.14;77.02;95285.84;4306709;32;20336;-59
2023/03/05 10:01:19;;;;;;;5.73;4.97;;;;;;;4.14;77.04;95284.03;4332077;32;20331;-59
2023/03/05 10:04:06;;;;;;;4.67;4.20;;;;;;;4.21;76.82;95283.78;4338695;32;20403;-59
2023/03/05 10:06:42;;;;;;;6.53;6.13;;;;;;;4.31;76.37;95278.59;4304191;32;20282;-59
2023/03/05 10:09:48;;;;;;;5.00;4.70;;;;;;;4.36;76.14;95277.84;4332659;32;20304;-59
2023/03/05 10:12:44;;;;;;;6.47;5.77;;;;;;;4.30;76.66;95278.84;4338385;32;20290;-60
2023/03/05 10:15:15;;;;;;;4.90;4.53;;;;;;;4.33;76.85;95266.00;4342513;32;20285;-60
2023/03/05 10:18:14;;;;;;;6.57;6.00;;;;;;;4.31;76.42;95257.59;4296825;32;20405;-60
2023/03/05 10:21:02;;;;;;;5.90;5.50;;;;;;;4.51;76.13;95259.53;4322809;32;20356;-60
2023/03/05 10:24:14;;;;;;;4.40;4.10;;;;;;;4.45;75.82;95263.16;4338946;32;20387;-60
2023/03/05 10:26:59;;;;;;;4.03;3.80;;;;;;;4.60;75.69;95260.59;4319113;32;20436;-60
2023/03/05 10:29:43;;;;;;;4.73;4.33;;;;;;;4.66;75.28;95270.09;4324758;32;20281;-60
2023/03/05 10:32:42;;;;;;;5.97;5.47;;;;;;;4.75;75.00;95257.25;4329854;32;20361;-60
2023/03/05 10:35:20;;;;;;;6.30;5.90;;;;;;;4.71;74.73;95254.34;4331388;32;20340;-60
2023/03/05 10:38:11;;;;;;;5.73;4.97;;;;;;;4.84;75.00;95240.72;4308694;32;20308;-60
2023/03/05 10:40:46;;;;;;;4.67;4.37;;;;;;;4.90;74.26;95248.62;4319340;32;20439;-60
2023/03/05 10:43:49;;;;;;;4.70;4.30;;;;;;;4.65;74.78;95242.22;4280933;32;20366;-60
2023/03/05 10:46:20;;;;;;;15.47;5.97;;;;;;;5.04;73.95;95244.44;4332870;32;20299;-60
2023/03/05 10:49:04;;;;;;;4.13;3.63;;;;;;;4.80;74.22;95234.38;4287853;33;20306;-61
2023/03/05 10:51:40;;;;;;;4.50;4.20;;;;;;;4.90;74.02;95235.47;4327067;32;20311;-60
2023/03/05 10:54:40;;;;;;;4.87;4.57;;;;;;;4.97;73.50;95225.50;4328442;32;20331;-59
2023/03/05 10:57:28;;;;;;;5.10;4.60;;;;;;;5.16;73.02;95226.59;4256149;32;20293;-59
2023/03/05 10:59:59;;;;;;;5.67;5.17;;;;;;;5.10;73.59;95223.16;4247038;32;20278;-59
2023/03/05 11:02:28;;;;;;;4.77;4.27;;;;;;;5.33;72.42;95213.19;4330748;32;20293;-59
2023/03/05 11:04:54;;;;;;;6.83;6.07;;;;;;;5.31;72.25;95217.91;4331598;32;20340;-59
2023/03/05 11:07:34;;;;;;;4.47;4.27;;;;;;;5.33;72.24;95216.59;4340685;32;20347;-59
2023/03/05 11:10:12;;;;;;;5.53;5.13;;;;;;;5.40;72.37;95209.22;4317590;32;20190;-59
2023/03/05 11:12:40;;;;;;;5.80;5.30;;;;;;;5.55;71.24;95207.66;4330722;32;20294;-59
2023/03/05 11:15:12;;;;;;;4.67;4.27;;;;;;;5.49;71.71;95210.28;4353002;32;20308;-59
2023/03/05 11:17:43;;;;;;;4.47;4.03;;;;;;;5.66;71.27;95206.59;4316185;32;20337;-59
2023/03/05 11:20:38;;;;;;;5.27;4.80;;;;;;;5.69;70.87;95203.44;4294320;32;20366;-59
2023/03/05 11:23:17;;;;;;;9.73;5.00;;;;;;;5.29;72.18;95201.59;4316055;32;20277;-59
2023/03/05 11:26:06;;;;;;;4.70;4.23;;;;;;;5.19;72.97;95189.25;4320487;32;20410;-59
2023/03/05 11:28:37;;;;;;;4.80;4.43;;;;;;;5.55;72.23;95190.03;4334001;32;20346;-59
2023/03/05 11:31:23;;;;;;;8.33;5.17;;;;;;;5.59;72.04;95191.09;4293808;32;20299;-59
2023/03/05 11:34:34;;;;;;;3.43;3.10;;;;;;;5.62;71.66;95184.50;4294920;32;20324;-64
2023/03/05 11:37:05;;;;;;;5.70;4.43;;;;;;;5.62;71.06;95184.50;4316201;32;20368;-58
2023/03/05 11:39:35;;;;;;;4.33;3.93;;;;;;;5.74;71.30;95180.53;4311734;32;20305;-59
2023/03/05 11:42:23;;;;;;;3.83;3.53;;;;;;;5.45;71.02;95177.66;4330214;32;20305;-59
2023/03/05 11:44:54;;;;;;;3.97;3.67;;;;;;;5.73;70.95;95170.28;4322908;32;20344;-58
2023/03/05 11:47:46;;;;;;;6.20;4.50;;;;;;;5.85;70.81;95168.13;4320458;32;20286;-59
2023/03/05 11:50:30;;;;;;;3.80;3.50;;;;;;;5.72;70.95;95171.34;4330801;32;20291;-59
2023/03/05 11:53:08;;;;;;;3.90;3.63;;;;;;;5.99;70.40;95177.09;4329451;32;20340;-59
2023/03/05 11:55:50;;;;;;;5.57;4.30;;;;;;;5.84;70.99;95169.19;4312351;32;20336;-58
2023/03/05 11:58:34;;;;;;;4.20;3.80;;;;;;;5.78;72.01;95160.53;4313936;32;20277;-58